Zuni, Virginia
Current Conditions -  °F | °C
As of 12:54 PM on Saturday 25 Oct 2014 (Local Time) from KAKQ Reporting Station
Clear Clear  
Wind Chill: 69°   Ceiling: Unl
Heat Index: 69°   Visibility: 10mi
Dew Point: 43°   Wind: 3mph
Humidity: 39%   Direction: 310°NW
Pressure: 29.95"   Gusts: NA
Location:  36.87°N, 76.83°W
Report Text: KAKQ 251654Z AUTO 31003KT 10SM CLR 21/06 A2995 RMK AO2 SLP143 T02060061 TSNO $
Loading
Personal Weather Stations






























Interactive Weather Map
Tropical Storm Tracking
New forecast layout! Learn more

10-Day Weather Forecast

Advertisements
Track Severe Weather on mobile